createdAt,value
2018-09-06T00:01:00.812Z,990.04
2018-09-06T00:02:10.953Z,990.04
2018-09-06T00:03:20.818Z,990.04
2018-09-06T00:04:30.957Z,989.99
2018-09-06T00:05:40.545Z,989.98
2018-09-06T00:06:50.464Z,989.97
2018-09-06T00:08:00.325Z,989.9
2018-09-06T00:09:10.185Z,989.87
2018-09-06T00:10:20.044Z,989.87
2018-09-06T00:11:30.178Z,989.86
2018-09-06T00:12:39.317Z,989.89
2018-09-06T00:13:49.452Z,989.84
2018-09-06T00:14:59.594Z,989.85
2018-09-06T00:16:09.469Z,989.81
2018-09-06T00:17:19.059Z,989.86
2018-09-06T00:18:29.244Z,989.82
2018-09-06T00:19:38.558Z,989.78
2018-09-06T00:20:48.696Z,989.76
2018-09-06T00:21:58.560Z,989.75
2018-09-06T00:23:08.696Z,989.8
2018-09-06T00:24:18.619Z,989.8
2018-09-06T00:25:27.929Z,989.81
2018-09-06T00:26:37.802Z,989.79
2018-09-06T00:27:47.943Z,989.79
2018-09-06T00:28:57.541Z,989.83
2018-09-06T00:30:07.185Z,989.87
2018-09-06T00:31:17.049Z,989.87
2018-09-06T00:32:26.917Z,989.86
2018-09-06T00:33:36.778Z,989.87
2018-09-06T00:34:46.913Z,989.86
2018-09-06T00:35:56.823Z,989.86
2018-09-06T00:37:06.963Z,989.84
2018-09-06T00:38:16.830Z,989.84
2018-09-06T00:39:26.961Z,989.82
2018-09-06T00:40:36.551Z,989.83
2018-09-06T00:41:46.466Z,989.85
2018-09-06T00:42:56.614Z,989.83
2018-09-06T00:44:06.479Z,989.85
2018-09-06T00:45:16.616Z,989.81
2018-09-06T00:46:26.484Z,989.8
2018-09-06T00:47:36.633Z,989.82
2018-09-06T00:48:46.765Z,989.77
2018-09-06T00:49:56.621Z,989.82
2018-09-06T00:51:06.481Z,989.81
2018-09-06T00:52:16.333Z,989.86
2018-09-06T00:53:26.765Z,989.84
2018-09-06T00:54:36.896Z,989.85
2018-09-06T00:55:46.755Z,989.81
2018-09-06T00:56:56.610Z,989.79
2018-09-06T00:58:06.472Z,989.79
2018-09-06T00:59:16.101Z,989.82
2018-09-06T01:00:25.958Z,989.85
2018-09-06T01:01:36.101Z,989.85
2018-09-06T01:02:45.950Z,989.87
2018-09-06T01:03:56.076Z,989.85
2018-09-06T01:05:05.980Z,989.91
2018-09-06T01:06:15.842Z,989.9
2018-09-06T01:07:25.976Z,989.87
2018-09-06T01:08:35.829Z,989.91
2018-09-06T01:09:45.956Z,989.9
2018-09-06T01:10:55.858Z,989.87
2018-09-06T01:12:05.718Z,989.91
2018-09-06T01:13:15.567Z,989.92
2018-09-06T01:14:25.141Z,989.89
2018-09-06T01:15:34.442Z,989.94
2018-09-06T01:16:44.568Z,989.96
2018-09-06T01:17:54.421Z,989.95
2018-09-06T01:19:04.273Z,989.97
2018-09-06T01:20:14.123Z,989.96
2018-09-06T01:21:24.267Z,989.94
2018-09-06T01:22:33.899Z,989.93
2018-09-06T01:23:44.029Z,989.95
2018-09-06T01:24:53.615Z,989.9
2018-09-06T01:26:03.468Z,989.89
2018-09-06T01:27:13.337Z,989.92
2018-09-06T01:28:23.517Z,989.89
2018-09-06T01:29:33.375Z,989.92
2018-09-06T01:30:42.952Z,989.92
2018-09-06T01:31:53.082Z,989.87
2018-09-06T01:33:02.664Z,989.88
2018-09-06T01:34:12.518Z,989.87
2018-09-06T01:35:22.661Z,989.88
2018-09-06T01:36:32.797Z,989.87
2018-09-06T01:37:42.920Z,989.89
2018-09-06T01:38:53.047Z,989.89
2018-09-06T01:40:02.688Z,989.88
2018-09-06T01:41:12.819Z,989.87
2018-09-06T01:42:22.956Z,989.86
2018-09-06T01:43:32.808Z,989.83
2018-09-06T01:44:42.661Z,989.81
2018-09-06T01:45:52.840Z,989.81
2018-09-06T01:47:02.419Z,989.83
2018-09-06T01:48:12.282Z,989.83
2018-09-06T01:49:21.587Z,989.84
2018-09-06T01:50:31.456Z,989.87
2018-09-06T01:51:41.590Z,989.87
2018-09-06T01:52:51.713Z,989.85
2018-09-06T01:54:01.564Z,989.82
2018-09-06T01:55:11.698Z,989.85
2018-09-06T01:56:21.274Z,989.79
2018-09-06T01:57:31.131Z,989.78
2018-09-06T01:58:41.272Z,989.77
2018-09-06T01:59:51.128Z,989.78
2018-09-06T02:01:01.258Z,989.74
2018-09-06T02:02:11.116Z,989.77
2018-09-06T02:03:21.248Z,989.74
2018-09-06T02:04:31.096Z,989.75
2018-09-06T02:05:41.227Z,989.74
2018-09-06T02:06:51.361Z,989.76
2018-09-06T02:08:01.487Z,989.75
2018-09-06T02:09:11.714Z,989.71
2018-09-06T02:10:21.872Z,989.7
2018-09-06T02:11:31.725Z,989.76
2018-09-06T02:12:41.853Z,989.73
2018-09-06T02:13:51.983Z,989.72
2018-09-06T02:15:01.588Z,989.74
2018-09-06T02:16:11.726Z,989.69
2018-09-06T02:17:21.301Z,989.71
2018-09-06T02:18:31.430Z,989.66
2018-09-06T02:19:41.281Z,989.66
2018-09-06T02:20:51.482Z,989.65
2018-09-06T02:22:01.360Z,989.63
2018-09-06T02:23:11.206Z,989.65
2018-09-06T02:24:20.533Z,989.71
2018-09-06T02:25:31.181Z,989.66
2018-09-06T02:26:41.081Z,989.66
2018-09-06T02:27:50.931Z,989.66
2018-09-06T02:29:00.516Z,989.69
2018-09-06T02:30:10.371Z,989.66
2018-09-06T02:31:20.528Z,989.7
2018-09-06T02:32:30.154Z,989.7
2018-09-06T02:33:40.018Z,989.71
2018-09-06T02:34:49.868Z,989.74
2018-09-06T02:35:59.725Z,989.71
2018-09-06T02:37:09.591Z,989.74
2018-09-06T02:38:19.451Z,989.73
2018-09-06T02:39:29.311Z,989.75
2018-09-06T02:40:39.164Z,989.73
2018-09-06T02:41:49.295Z,989.72
2018-09-06T02:42:59.152Z,989.73
2018-09-06T02:44:09.334Z,989.71
2018-09-06T02:45:19.499Z,989.72
2018-09-06T02:46:29.630Z,989.75
2018-09-06T02:47:39.753Z,989.74
2018-09-06T02:48:49.916Z,989.73
2018-09-06T02:49:59.544Z,989.72
2018-09-06T02:51:08.851Z,989.74
2018-09-06T02:52:18.704Z,989.74
2018-09-06T02:53:28.836Z,989.73
2018-09-06T02:54:38.971Z,989.7
2018-09-06T02:55:49.201Z,989.69
2018-09-06T02:56:59.112Z,989.64
2018-09-06T02:58:08.963Z,989.68
2018-09-06T02:59:19.091Z,989.65
2018-09-06T03:00:28.940Z,989.63
2018-09-06T03:01:38.524Z,989.61
2018-09-06T03:02:48.650Z,989.61
2018-09-06T03:03:58.509Z,989.62
2018-09-06T03:05:08.361Z,989.59
2018-09-06T03:06:18.235Z,989.61
2018-09-06T03:07:28.362Z,989.6
2018-09-06T03:08:38.492Z,989.62
2018-09-06T03:09:48.352Z,989.61
2018-09-06T03:10:58.491Z,989.61
2018-09-06T03:12:08.352Z,989.59
2018-09-06T03:13:18.255Z,989.56
2018-09-06T03:14:28.403Z,989.55
2018-09-06T03:15:38.543Z,989.57
2018-09-06T03:16:48.681Z,989.59
2018-09-06T03:17:58.268Z,989.57
2018-09-06T03:19:07.897Z,989.61
2018-09-06T03:20:18.031Z,989.62
2018-09-06T03:21:28.167Z,989.53
2018-09-06T03:22:38.296Z,989.53
2018-09-06T03:23:48.415Z,989.5
2018-09-06T03:24:58.322Z,989.49
2018-09-06T03:26:07.899Z,989.48
2018-09-06T03:27:17.752Z,989.51
2018-09-06T03:28:27.888Z,989.49
2018-09-06T03:29:37.757Z,989.51
2018-09-06T03:30:47.666Z,989.47
2018-09-06T03:31:57.532Z,989.53
2018-09-06T03:33:07.384Z,989.49
2018-09-06T03:34:17.250Z,989.5
2018-09-06T03:35:26.572Z,989.51
2018-09-06T03:36:36.424Z,989.48
2018-09-06T03:37:46.277Z,989.49
2018-09-06T03:38:56.412Z,989.46
2018-09-06T03:40:06.281Z,989.48
2018-09-06T03:41:16.159Z,989.47
2018-09-06T03:42:26.341Z,989.47
2018-09-06T03:43:36.472Z,989.47
2018-09-06T03:44:46.061Z,989.44
2018-09-06T03:45:55.361Z,989.46
2018-09-06T03:47:05.496Z,989.43
2018-09-06T03:48:15.403Z,989.45
2018-09-06T03:49:25.321Z,989.46
2018-09-06T03:50:35.179Z,989.43
2018-09-06T03:51:44.756Z,989.45
2018-09-06T03:52:54.611Z,989.47
2018-09-06T03:54:04.741Z,989.48
2018-09-06T03:55:14.876Z,989.48
2018-09-06T03:56:25.001Z,989.49
2018-09-06T03:57:34.853Z,989.52
2018-09-06T03:58:44.984Z,989.52
2018-09-06T03:59:55.163Z,989.5
2018-09-06T04:01:05.016Z,989.48
2018-09-06T04:02:14.878Z,989.5
2018-09-06T04:03:25.011Z,989.49
2018-09-06T04:04:34.591Z,989.45
2018-09-06T04:05:44.764Z,989.44
2018-09-06T04:06:54.889Z,989.45
2018-09-06T04:08:04.488Z,989.42
2018-09-06T04:09:14.362Z,989.41
2018-09-06T04:10:24.214Z,989.4
2018-09-06T04:11:34.119Z,989.34
2018-09-06T04:12:43.978Z,989.35
2018-09-06T04:13:53.829Z,989.41
2018-09-06T04:15:03.954Z,989.4
2018-09-06T04:16:14.092Z,989.42
2018-09-06T04:17:24.009Z,989.38
2018-09-06T04:18:33.925Z,989.37
2018-09-06T04:19:43.636Z,989.35
2018-09-06T04:20:53.497Z,989.37
2018-09-06T04:22:03.072Z,989.39
2018-09-06T04:23:12.923Z,989.41
2018-09-06T04:24:22.858Z,989.4
2018-09-06T04:25:33.327Z,989.4
2018-09-06T04:26:43.460Z,989.39
2018-09-06T04:27:53.039Z,989.44
2018-09-06T04:29:03.217Z,989.41
2018-09-06T04:30:13.072Z,989.41
2018-09-06T04:31:22.933Z,989.43
2018-09-06T04:32:32.243Z,989.43
2018-09-06T04:33:42.094Z,989.42
2018-09-06T04:34:52.063Z,989.43
2018-09-06T04:36:01.930Z,989.44
2018-09-06T04:37:12.509Z,989.44
2018-09-06T04:38:22.365Z,989.43
2018-09-06T04:39:32.497Z,989.43
2018-09-06T04:40:42.679Z,989.44
2018-09-06T04:41:52.807Z,989.49
2018-09-06T04:43:02.671Z,989.48
2018-09-06T04:44:11.996Z,989.48
2018-09-06T04:45:22.119Z,989.51
2018-09-06T04:46:32.314Z,989.52
2018-09-06T04:47:42.442Z,989.53
2018-09-06T04:48:52.297Z,989.58
2018-09-06T04:50:02.146Z,989.57
2018-09-06T04:51:12.006Z,989.59
2018-09-06T04:52:21.853Z,989.58
2018-09-06T04:53:31.703Z,989.58
2018-09-06T04:54:41.828Z,989.58
2018-09-06T04:55:51.681Z,989.59
2018-09-06T04:57:01.543Z,989.55
2018-09-06T04:58:11.400Z,989.56
2018-09-06T04:59:21.341Z,989.53
2018-09-06T05:00:31.194Z,989.51
2018-09-06T05:01:41.399Z,989.46
2018-09-06T05:02:51.530Z,989.5
2018-09-06T05:04:01.444Z,989.46
2018-09-06T05:05:11.790Z,989.5
2018-09-06T05:06:21.918Z,989.44
2018-09-06T05:07:32.097Z,989.48
2018-09-06T05:08:42.228Z,989.46
2018-09-06T05:09:51.807Z,989.45
2018-09-06T05:11:01.932Z,989.45
2018-09-06T05:12:11.241Z,989.5
2018-09-06T05:13:21.105Z,989.49
2018-09-06T05:14:31.240Z,989.53
2018-09-06T05:15:41.220Z,989.52
2018-09-06T05:16:51.379Z,989.5
2018-09-06T05:18:01.510Z,989.52
2018-09-06T05:19:11.633Z,989.52
2018-09-06T05:20:21.762Z,989.5
2018-09-06T05:21:31.658Z,989.5
2018-09-06T05:22:40.965Z,989.5
2018-09-06T05:23:51.106Z,989.51
2018-09-06T05:25:00.958Z,989.49
2018-09-06T05:26:10.818Z,989.47
2018-09-06T05:27:22.463Z,989.48
2018-09-06T05:28:32.586Z,989.47
2018-09-06T05:29:42.165Z,989.46
2018-09-06T05:30:51.851Z,989.48
2018-09-06T05:32:02.212Z,989.45
2018-09-06T05:33:12.115Z,989.43
2018-09-06T05:34:21.977Z,989.41
2018-09-06T05:35:31.858Z,989.42
2018-09-06T05:36:41.998Z,989.43
2018-09-06T05:37:51.859Z,989.37
2018-09-06T05:39:02.038Z,989.45
2018-09-06T05:40:11.339Z,989.39
2018-09-06T05:41:20.920Z,989.4
2018-09-06T05:42:30.228Z,989.41
2018-09-06T05:43:40.354Z,989.4
2018-09-06T05:44:50.529Z,989.4
2018-09-06T05:46:00.104Z,989.38
2018-09-06T05:47:09.952Z,989.41
2018-09-06T05:48:19.835Z,989.4
2018-09-06T05:49:29.962Z,989.43
2018-09-06T05:50:39.828Z,989.46
2018-09-06T05:51:49.404Z,989.48
2018-09-06T05:52:59.533Z,989.45
2018-09-06T05:54:09.664Z,989.39
2018-09-06T05:55:19.517Z,989.41
2018-09-06T05:56:29.419Z,989.42
2018-09-06T05:57:39.550Z,989.42
2018-09-06T05:58:49.672Z,989.41
2018-09-06T05:59:59.855Z,989.46
2018-09-06T06:01:10.095Z,989.45
2018-09-06T06:02:19.998Z,989.46
2018-09-06T06:03:29.574Z,989.43
2018-09-06T06:04:39.426Z,989.45
2018-09-06T06:05:49.273Z,989.47
2018-09-06T06:06:59.399Z,989.48
2018-09-06T06:08:09.301Z,989.53
2018-09-06T06:09:19.151Z,989.52
2018-09-06T06:10:29.003Z,989.49
2018-09-06T06:11:38.905Z,989.55
2018-09-06T06:12:49.203Z,989.51
2018-09-06T06:13:59.116Z,989.54
2018-09-06T06:15:08.698Z,989.51
2018-09-06T06:16:18.829Z,989.51
2018-09-06T06:17:28.688Z,989.52
2018-09-06T06:18:38.275Z,989.53
2018-09-06T06:19:48.222Z,989.48
2018-09-06T06:20:58.215Z,989.53
2018-09-06T06:22:08.348Z,989.52
2018-09-06T06:23:18.335Z,989.51
2018-09-06T06:24:28.191Z,989.48
2018-09-06T06:25:37.819Z,989.51
2018-09-06T06:26:47.957Z,989.5
2018-09-06T06:27:57.808Z,989.45
2018-09-06T06:29:07.400Z,989.44
2018-09-06T06:30:17.532Z,989.43
2018-09-06T06:31:27.439Z,989.44
2018-09-06T06:32:37.568Z,989.42
2018-09-06T06:33:47.150Z,989.45
2018-09-06T06:34:57.317Z,989.41
2018-09-06T06:36:07.447Z,989.44
2018-09-06T06:37:17.080Z,989.43
2018-09-06T06:38:26.933Z,989.4
2018-09-06T06:39:37.067Z,989.38
2018-09-06T06:40:46.403Z,989.39
2018-09-06T06:41:56.257Z,989.37
2018-09-06T06:43:05.847Z,989.4
2018-09-06T06:44:35.865Z,989.38
2018-09-06T06:45:45.473Z,989.35
2018-09-06T06:46:55.564Z,989.38
2018-09-06T06:48:05.722Z,989.38
2018-09-06T06:49:15.575Z,989.38
2018-09-06T06:50:25.448Z,989.4
2018-09-06T06:51:35.847Z,989.41
2018-09-06T06:52:45.972Z,989.41
2018-09-06T06:53:55.873Z,989.41
2018-09-06T06:55:05.453Z,989.37
2018-09-06T06:56:15.300Z,989.41
2018-09-06T06:57:25.426Z,989.4
2018-09-06T06:58:35.313Z,989.42
2018-09-06T06:59:45.349Z,989.4
2018-09-06T07:00:55.268Z,989.39
2018-09-06T07:02:05.495Z,989.42
2018-09-06T07:03:15.629Z,989.48
2018-09-06T07:04:25.539Z,989.46
2018-09-06T07:05:36.102Z,989.47
2018-09-06T07:06:46.289Z,989.45
2018-09-06T07:07:56.673Z,989.46
2018-09-06T07:09:06.252Z,989.42
2018-09-06T07:10:16.107Z,989.4
2018-09-06T07:11:26.006Z,989.42
2018-09-06T07:12:35.863Z,989.44
2018-09-06T07:13:45.728Z,989.44
2018-09-06T07:14:55.584Z,989.45
2018-09-06T07:16:05.718Z,989.44
2018-09-06T07:17:15.347Z,989.51
2018-09-06T07:18:24.776Z,989.45
2018-09-06T07:19:35.291Z,989.46
2018-09-06T07:20:45.422Z,989.47
2018-09-06T07:21:55.548Z,989.48
2018-09-06T07:23:05.448Z,989.48
2018-09-06T07:24:14.751Z,989.48
2018-09-06T07:25:24.616Z,989.5
2018-09-06T07:26:34.756Z,989.52
2018-09-06T07:27:44.338Z,989.48
2018-09-06T07:28:54.236Z,989.48
2018-09-06T07:30:04.088Z,989.45
2018-09-06T07:31:14.228Z,989.45
2018-09-06T07:32:24.079Z,989.41
2018-09-06T07:33:34.202Z,989.43
2018-09-06T07:34:44.113Z,989.45
2018-09-06T07:35:54.241Z,989.41
2018-09-06T07:37:04.104Z,989.42
2018-09-06T07:38:14.235Z,989.43
2018-09-06T07:39:23.818Z,989.41
2018-09-06T07:40:34.045Z,989.48
2018-09-06T07:41:43.902Z,989.5
2018-09-06T07:42:53.479Z,989.47
2018-09-06T07:44:03.327Z,989.46
2018-09-06T07:45:13.178Z,989.47
2018-09-06T07:46:23.353Z,989.45
2018-09-06T07:47:32.662Z,989.46
2018-09-06T07:48:42.241Z,989.46
2018-09-06T07:49:52.366Z,989.43
2018-09-06T07:51:02.170Z,989.4
2018-09-06T07:52:12.092Z,989.44
2018-09-06T07:53:22.195Z,989.43
2018-09-06T07:54:32.048Z,989.43
2018-09-06T07:55:41.623Z,989.42
2018-09-06T07:56:51.477Z,989.4
2018-09-06T07:58:02.020Z,989.36
2018-09-06T07:59:11.870Z,989.38
2018-09-06T08:00:22.001Z,989.37
2018-09-06T08:01:31.320Z,989.37
2018-09-06T08:02:41.267Z,989.37
2018-09-06T08:03:51.171Z,989.36
2018-09-06T08:05:01.303Z,989.42
2018-09-06T08:06:11.451Z,989.4
2018-09-06T08:07:20.761Z,989.44
2018-09-06T08:08:30.617Z,989.41
2018-09-06T08:09:40.898Z,989.45
2018-09-06T08:10:50.759Z,989.47
2018-09-06T08:12:00.380Z,989.5
2018-09-06T08:13:10.262Z,989.49
2018-09-06T08:14:20.112Z,989.5
2018-09-06T08:15:29.689Z,989.51
2018-09-06T08:16:39.816Z,989.5
2018-09-06T08:17:49.401Z,989.53
2018-09-06T08:18:59.585Z,989.52
2018-09-06T08:20:09.465Z,989.51
2018-09-06T08:21:18.769Z,989.54
2018-09-06T08:22:28.627Z,989.52
2018-09-06T08:23:38.763Z,989.57
2018-09-06T08:24:48.618Z,989.55
2018-09-06T08:25:58.475Z,989.53
2018-09-06T08:27:08.385Z,989.56
2018-09-06T08:28:18.252Z,989.52
2018-09-06T08:29:28.104Z,989.54
2018-09-06T08:30:37.724Z,989.55
2018-09-06T08:31:47.934Z,989.52
2018-09-06T08:32:57.794Z,989.5
2018-09-06T08:34:07.095Z,989.54
2018-09-06T08:35:17.226Z,989.52
2018-09-06T08:36:27.086Z,989.53
2018-09-06T08:37:37.213Z,989.5
2018-09-06T08:38:46.797Z,989.5
2018-09-06T08:39:56.930Z,989.48
2018-09-06T08:41:07.062Z,989.52
2018-09-06T08:42:16.914Z,989.49
2018-09-06T08:43:27.041Z,989.49
2018-09-06T08:44:36.891Z,989.52
2018-09-06T08:45:46.476Z,989.51
2018-09-06T08:46:56.331Z,989.51
2018-09-06T08:48:06.547Z,989.53
2018-09-06T08:49:16.128Z,989.55
2018-09-06T08:50:27.433Z,989.53
2018-09-06T08:51:37.334Z,989.57
2018-09-06T08:52:47.187Z,989.56
2018-09-06T08:53:57.058Z,989.54
2018-09-06T08:55:06.916Z,989.53
2018-09-06T08:56:16.776Z,989.51
2018-09-06T08:57:26.998Z,989.54
2018-09-06T08:58:36.744Z,989.58
2018-09-06T08:59:46.687Z,989.57
2018-09-06T09:00:56.417Z,989.56
2018-09-06T09:02:06.866Z,989.56
2018-09-06T09:03:17.589Z,989.51
2018-09-06T09:04:28.280Z,989.6
2018-09-06T09:05:38.100Z,989.61
2018-09-06T09:06:48.127Z,989.56
2018-09-06T09:07:57.862Z,989.59
2018-09-06T09:09:07.605Z,989.55
2018-09-06T09:10:17.618Z,989.56
2018-09-06T09:11:27.646Z,989.56
2018-09-06T09:12:38.008Z,989.59
2018-09-06T09:13:48.416Z,989.63
2018-09-06T09:14:58.438Z,989.57
2018-09-06T09:16:08.465Z,989.62
2018-09-06T09:17:19.266Z,989.58
2018-09-06T09:18:29.665Z,989.58
2018-09-06T09:19:40.153Z,989.58
2018-09-06T09:20:49.889Z,989.6
2018-09-06T09:22:00.011Z,989.63
2018-09-06T09:23:10.163Z,989.57
2018-09-06T09:24:20.180Z,989.58
2018-09-06T09:25:30.322Z,989.63
2018-09-06T09:26:40.912Z,989.6
2018-09-06T09:27:50.925Z,989.6
2018-09-06T09:29:00.663Z,989.6
2018-09-06T09:30:10.991Z,989.59
2018-09-06T09:31:21.331Z,989.55
2018-09-06T09:32:30.911Z,989.54
2018-09-06T09:33:41.044Z,989.49
2018-09-06T09:34:50.655Z,989.52
2018-09-06T09:36:00.536Z,989.47
2018-09-06T09:37:11.169Z,989.48
2018-09-06T09:38:21.030Z,989.51
2018-09-06T09:39:31.199Z,989.48
2018-09-06T09:40:41.055Z,989.47
2018-09-06T09:41:50.910Z,989.49
2018-09-06T09:43:00.917Z,989.46
2018-09-06T09:44:10.869Z,989.48
2018-09-06T09:45:20.176Z,989.49
2018-09-06T09:47:38.573Z,989.47
2018-09-06T09:48:47.906Z,989.45
2018-09-06T09:49:57.445Z,989.42
2018-09-06T09:51:07.025Z,989.45
2018-09-06T09:52:16.606Z,989.48
2018-09-06T09:53:26.418Z,989.46
2018-09-06T09:54:36.268Z,989.42
2018-09-06T09:55:46.122Z,989.43
2018-09-06T09:56:56.047Z,989.42
2018-09-06T09:58:06.485Z,989.42
2018-09-06T09:59:16.351Z,989.47
2018-09-06T10:00:25.965Z,989.41
2018-09-06T10:01:36.092Z,989.4
2018-09-06T10:02:46.222Z,989.39
2018-09-06T10:03:56.360Z,989.37
2018-09-06T10:05:06.491Z,989.39
2018-09-06T10:06:16.365Z,989.38
2018-09-06T10:07:26.121Z,989.36
2018-09-06T10:08:35.699Z,989.4
2018-09-06T10:09:45.557Z,989.39
2018-09-06T10:10:55.682Z,989.38
2018-09-06T10:12:05.534Z,989.39
2018-09-06T10:13:15.388Z,989.35
2018-09-06T10:14:25.518Z,989.39
2018-09-06T10:15:35.366Z,989.41
2018-09-06T10:16:45.490Z,989.39
2018-09-06T10:17:55.620Z,989.41
2018-09-06T10:19:05.641Z,989.4
2018-09-06T10:20:15.776Z,989.38
2018-09-06T10:21:25.644Z,989.36
2018-09-06T10:22:35.496Z,989.36
2018-09-06T10:23:45.348Z,989.34
2018-09-06T10:24:54.927Z,989.36
2018-09-06T10:26:04.782Z,989.34
2018-09-06T10:27:14.907Z,989.33
2018-09-06T10:28:24.483Z,989.31
2018-09-06T10:29:33.817Z,989.35
2018-09-06T10:30:43.942Z,989.33
2018-09-06T10:31:53.519Z,989.37
2018-09-06T10:33:03.649Z,989.3
2018-09-06T10:34:13.783Z,989.3
2018-09-06T10:35:23.810Z,989.26
2018-09-06T10:36:34.032Z,989.32
2018-09-06T10:37:43.882Z,989.26
2018-09-06T10:38:53.751Z,989.26
2018-09-06T10:40:04.007Z,989.27
2018-09-06T10:41:13.716Z,989.29
2018-09-06T10:42:23.846Z,989.25
2018-09-06T10:43:33.425Z,989.24
2018-09-06T10:44:43.284Z,989.24
2018-09-06T10:45:53.411Z,989.27
2018-09-06T10:47:03.594Z,989.28
2018-09-06T10:48:13.725Z,989.27
2018-09-06T10:49:23.300Z,989.24
2018-09-06T10:50:33.430Z,989.26
2018-09-06T10:51:43.559Z,989.24
2018-09-06T10:52:53.687Z,989.25
2018-09-06T10:54:03.273Z,989.24
2018-09-06T10:55:12.857Z,989.25
2018-09-06T10:56:22.716Z,989.2
2018-09-06T10:57:32.843Z,989.25
2018-09-06T10:58:42.970Z,989.23
2018-09-06T10:59:52.820Z,989.22
2018-09-06T11:01:02.407Z,989.2
2018-09-06T11:02:12.260Z,989.19
2018-09-06T11:03:22.405Z,989.21
2018-09-06T11:04:31.812Z,989.19
2018-09-06T11:05:41.679Z,989.17
2018-09-06T11:06:51.543Z,989.23
2018-09-06T11:08:01.164Z,989.21
2018-09-06T11:09:11.520Z,989.22
2018-09-06T11:10:22.274Z,989.19
2018-09-06T11:11:32.401Z,989.21
2018-09-06T11:12:42.542Z,989.17
2018-09-06T11:13:52.667Z,989.23
2018-09-06T11:15:02.841Z,989.19
2018-09-06T11:16:13.105Z,989.18
2018-09-06T11:17:23.239Z,989.2
2018-09-06T11:18:33.364Z,989.24
2018-09-06T11:19:43.524Z,989.2
2018-09-06T11:20:53.089Z,989.21
2018-09-06T11:22:03.135Z,989.21
2018-09-06T11:23:14.483Z,989.17
2018-09-06T11:24:24.340Z,989.15
2018-09-06T11:25:33.926Z,989.11
2018-09-06T11:26:43.785Z,989.11
2018-09-06T11:27:53.438Z,989.08
2018-09-06T11:29:03.897Z,989.11
2018-09-06T11:30:13.760Z,989.09
2018-09-06T11:31:23.616Z,989.06
2018-09-06T11:32:33.746Z,989.11
2018-09-06T11:33:45.329Z,989.07
2018-09-06T11:34:55.456Z,989.08
2018-09-06T11:36:05.312Z,989.03
2018-09-06T11:37:15.167Z,989.04
2018-09-06T11:38:25.019Z,989.04
2018-09-06T11:39:34.867Z,989.07
2018-09-06T11:40:44.724Z,989.01
2018-09-06T11:41:54.331Z,989.03
2018-09-06T11:43:04.234Z,989.05
2018-09-06T11:44:14.091Z,989.04
2018-09-06T11:45:23.686Z,989.07
2018-09-06T11:46:33.029Z,989.03
2018-09-06T11:47:42.199Z,989.05
2018-09-06T11:48:52.981Z,989.01
2018-09-06T11:50:02.836Z,989.06
2018-09-06T11:51:12.742Z,989.08
2018-09-06T11:52:22.877Z,989.06
2018-09-06T11:53:33.005Z,989.07
2018-09-06T11:54:42.887Z,989.03
2018-09-06T11:55:52.736Z,989.01
2018-09-06T11:57:02.646Z,989.03
2018-09-06T11:58:12.508Z,988.98
2018-09-06T11:59:22.642Z,989
2018-09-06T12:00:32.495Z,989
2018-09-06T12:01:42.625Z,988.94
2018-09-06T12:02:52.545Z,988.96
2018-09-06T12:04:02.396Z,988.99
2018-09-06T12:05:12.544Z,988.98
2018-09-06T12:06:22.403Z,989.01
2018-09-06T12:07:32.538Z,989
2018-09-06T12:08:42.120Z,988.98
2018-09-06T12:09:52.248Z,989
2018-09-06T12:11:02.098Z,989.01
2018-09-06T12:12:11.960Z,988.99
2018-09-06T12:13:21.823Z,988.99
2018-09-06T12:14:31.951Z,988.93
2018-09-06T12:15:42.079Z,988.96
2018-09-06T12:16:52.209Z,988.98
2018-09-06T12:18:02.062Z,988.97
2018-09-06T12:19:11.647Z,988.95
2018-09-06T12:20:21.575Z,988.92
2018-09-06T12:21:31.166Z,988.95
2018-09-06T12:22:41.023Z,988.92
2018-09-06T12:23:51.170Z,988.91
2018-09-06T12:25:01.032Z,988.89
2018-09-06T12:26:11.257Z,988.93
2018-09-06T12:27:21.111Z,988.91
2018-09-06T12:28:30.691Z,988.9
2018-09-06T12:29:40.832Z,988.88
2018-09-06T12:30:50.965Z,988.91
2018-09-06T12:32:01.129Z,988.94
2018-09-06T12:33:11.386Z,988.91
2018-09-06T12:34:21.608Z,988.91
2018-09-06T12:35:31.187Z,988.92
2018-09-06T12:36:40.771Z,988.87
2018-09-06T12:37:50.622Z,988.88
2018-09-06T12:39:00.481Z,988.92
2018-09-06T12:40:10.614Z,988.9
2018-09-06T12:41:20.480Z,988.9
2018-09-06T12:42:30.616Z,988.89
2018-09-06T12:43:40.466Z,988.89
2018-09-06T12:44:50.593Z,988.92
2018-09-06T12:46:00.168Z,988.9
2018-09-06T12:47:10.019Z,988.9
2018-09-06T12:48:19.606Z,988.92
2018-09-06T12:49:29.468Z,988.9
2018-09-06T12:50:39.491Z,988.93
2018-09-06T12:51:49.622Z,988.89
2018-09-06T12:52:58.924Z,988.92
2018-09-06T12:54:08.778Z,988.93
2018-09-06T12:55:18.958Z,988.88
2018-09-06T12:56:29.094Z,988.87
2018-09-06T12:57:39.488Z,988.89
2018-09-06T12:58:49.610Z,988.89
2018-09-06T12:59:59.222Z,988.91
2018-09-06T13:01:09.353Z,988.89
2018-09-06T13:02:19.491Z,988.88
2018-09-06T13:03:29.346Z,988.9
2018-09-06T13:04:39.473Z,988.87
2018-09-06T13:05:49.321Z,988.88
2018-09-06T13:07:02.751Z,988.85
2018-09-06T13:08:12.669Z,988.84
2018-09-06T13:09:22.982Z,988.83
2018-09-06T13:10:32.308Z,988.85
2018-09-06T13:11:42.437Z,988.85
2018-09-06T13:12:52.020Z,988.87
2018-09-06T13:14:01.594Z,988.81
2018-09-06T13:15:11.182Z,988.84
2018-09-06T13:16:21.042Z,988.8
2018-09-06T13:17:31.179Z,988.8
2018-09-06T13:18:41.402Z,988.79
2018-09-06T13:19:52.077Z,988.74
2018-09-06T13:21:01.671Z,988.76
2018-09-06T13:22:11.805Z,988.75
2018-09-06T13:23:21.665Z,988.75
2018-09-06T13:24:31.839Z,988.73
2018-09-06T13:25:41.976Z,988.79
2018-09-06T13:26:52.103Z,988.78
2018-09-06T13:28:01.968Z,988.77
2018-09-06T13:29:11.273Z,988.72
2018-09-06T13:30:21.233Z,988.7
2018-09-06T13:31:31.367Z,988.72
2018-09-06T13:32:40.954Z,988.73
2018-09-06T13:33:50.809Z,988.71
2018-09-06T13:35:00.933Z,988.69
2018-09-06T13:36:11.117Z,988.7
2018-09-06T13:37:21.250Z,988.67
2018-09-06T13:38:31.388Z,988.71
2018-09-06T13:39:41.245Z,988.7
2018-09-06T13:40:51.376Z,988.68
2018-09-06T13:42:01.226Z,988.68
2018-09-06T13:43:11.080Z,988.67
2018-09-06T13:44:20.658Z,988.66
2018-09-06T13:45:30.796Z,988.66
2018-09-06T13:46:40.653Z,988.66
2018-09-06T13:47:50.980Z,988.62
2018-09-06T13:49:01.106Z,988.64
2018-09-06T13:50:11.229Z,988.64
2018-09-06T13:51:20.805Z,988.66
2018-09-06T13:52:30.672Z,988.62
2018-09-06T13:53:40.304Z,988.63
2018-09-06T13:54:49.885Z,988.63
2018-09-06T13:55:59.462Z,988.6
2018-09-06T13:57:09.319Z,988.61
2018-09-06T13:58:19.210Z,988.64
2018-09-06T13:59:29.274Z,988.62
2018-09-06T14:00:39.129Z,988.61
2018-09-06T14:01:48.432Z,988.6
2018-09-06T14:02:58.615Z,988.59
2018-09-06T14:04:08.476Z,988.61
2018-09-06T14:05:18.656Z,988.57
2018-09-06T14:06:28.539Z,988.63
2018-09-06T14:07:38.390Z,988.59
2018-09-06T14:08:48.523Z,988.6
2018-09-06T14:09:58.377Z,988.62
2018-09-06T14:11:08.290Z,988.62
2018-09-06T14:12:18.428Z,988.68
2018-09-06T14:13:28.289Z,988.6
2018-09-06T14:14:38.419Z,988.61
2018-09-06T14:15:48.274Z,988.57
2018-09-06T14:16:58.127Z,988.6
2018-09-06T14:18:07.992Z,988.57
2018-09-06T14:19:18.137Z,988.63
2018-09-06T14:20:28.002Z,988.62
2018-09-06T14:21:38.141Z,988.59
2018-09-06T14:22:48.054Z,988.58
2018-09-06T14:23:57.369Z,988.58
2018-09-06T14:25:06.815Z,988.61
2018-09-06T14:26:16.671Z,988.6
2018-09-06T14:27:26.801Z,988.56
2018-09-06T14:28:36.978Z,988.58
2018-09-06T14:29:46.833Z,988.61
2018-09-06T14:30:56.688Z,988.6
2018-09-06T14:32:06.337Z,988.59
2018-09-06T14:33:16.793Z,988.6
2018-09-06T14:34:26.976Z,988.6
2018-09-06T14:35:37.102Z,988.61
2018-09-06T14:36:47.230Z,988.6
2018-09-06T14:37:57.358Z,988.63